This is the latest recevied weather packets stored in our database for station/object TG9ADI-20. If no packets are shown the sender has not sent any weather packets the latest 10 day(s).
| Time | Temp. | Humidity | Pressure | Rain* | Wind** | Luminosity | Snow |
|---|---|---|---|---|---|---|---|
| 1778342411 | 20.56° C | 83% | 1013 hPa | 0 mm | - | - | - |
| 1778341210 | 20.56° C | 83% | 1013 hPa | 0 mm | - | - | - |
| 1778340609 | 20.56° C | 83% | 1014 hPa | 0 mm | - | - | - |
| 1778340008 | 20.56° C | 83% | 1014 hPa | 0 mm | - | - | - |
| 1778339408 | 20.56° C | 83% | 1014 hPa | 0 mm | - | - | - |
| 1778338807 | 19.44° C | 94% | 1013 hPa | 0 mm | - | - | - |
| 1778338206 | 19.44° C | 94% | 1013 hPa | 0 mm | - | - | - |
| 1778337606 | 19.44° C | 94% | 1013 hPa | 0 mm | - | - | - |
| 1778337005 | 19.44° C | 94% | 1014 hPa | 0 mm | - | - | - |
| 1778336916 | 19.44° C | 94% | 1014 hPa | 0 mm | - | - | - |
| 1778336315 | 19.44° C | 94% | 1013 hPa | 0 mm | - | - | - |
| 1778335715 | 18.89° C | 10% | - | 0 mm | - | - | - |
| 1778335114 | 18.89° C | 10% | - | 0 mm | - | - | - |
| 1778334513 | 18.89° C | 10% | - | 0 mm | - | - | - |
| 1778333913 | 18.89° C | 10% | - | 0 mm | - | - | - |
| 1778333312 | 18.33° C | 10% | - | 0 mm | - | - | - |
| 1778332712 | 18.33° C | 10% | - | 0 mm | - | - | - |
| 1778332111 | 18.33° C | 99% | 1013 hPa | 0 mm | - | - | - |
| 1778331511 | 18.89° C | 97% | 1013 hPa | 0 mm | - | - | - |
| 1778330910 | 18.89° C | 97% | 1013 hPa | 0 mm | - | - | - |
| 1778330309 | 18.89° C | 96% | 1013 hPa | 0 mm | - | - | - |
| 1778329709 | 18.89° C | 97% | 1013 hPa | 0 mm | - | - | - |
| 1778329108 | 16.67° C | 99% | 1013 hPa | 0 mm | - | - | - |
| 1778328508 | 17.22° C | 98% | 1013 hPa | 0 mm | - | - | - |
| 1778327907 | 17.22° C | 98% | 1013 hPa | 0 mm | - | - | - |
* Rain latest hour (hover to see other rain measurements)
** Current wind speed in m/s (hover to see current wind gust speed)